Time;durP1;ratioP1;P1;durP2;ratioP2;P2;SDS_P1;SDS_P2;PMS_P1;PMS_P2;Temp;Humidity;BMP_temperature;BMP_pressure;BME280_temperature;BME280_humidity;BME280_pressure;Samples;Min_cycle;Max_cycle;Signal;HPM_P1;HPM_P2
2021/08/06 00:00:58;;;;;;;;;2.67;2.00;;;;;26.93;44.97;100094.00;4935477;28;45480;-72
2021/08/06 00:03:23;;;;;;;;;1.00;1.00;;;;;26.91;44.87;100083.53;4925508;28;45430;-72
2021/08/06 00:05:49;;;;;;;;;2.00;0.67;;;;;26.94;44.98;100098.28;4936747;28;45456;-72
2021/08/06 00:08:14;;;;;;;;;1.00;1.00;;;;;26.94;44.74;100099.09;4930981;28;45511;-72
2021/08/06 00:10:40;;;;;;;;;2.00;0.33;;;;;26.94;45.14;100098.28;4936066;28;46056;-72
2021/08/06 00:13:05;;;;;;;;;2.33;1.00;;;;;26.94;45.02;100099.09;4936018;28;46269;-72
2021/08/06 00:15:31;;;;;;;;;3.00;1.00;;;;;26.95;44.83;100094.56;4936386;28;48519;-72
2021/08/06 00:17:56;;;;;;;;;4.00;1.00;;;;;26.95;44.74;100095.38;4937828;28;45401;-72
2021/08/06 00:20:21;;;;;;;;;3.33;1.00;;;;;26.96;44.63;100101.50;4936145;28;45369;-72
2021/08/06 00:22:47;;;;;;;;;0.67;0.67;;;;;26.95;44.84;100098.06;4935767;28;46156;-72
2021/08/06 00:25:12;;;;;;;;;1.00;1.00;;;;;26.95;45.20;100100.72;4934587;28;45480;-72
2021/08/06 00:27:39;;;;;;;;;1.00;1.00;;;;;26.94;45.12;100096.41;4935784;28;45556;-72
2021/08/06 00:30:05;;;;;;;;;1.00;1.00;;;;;26.93;44.84;100088.66;4938063;28;45553;-72
2021/08/06 00:32:30;;;;;;;;;2.00;2.00;;;;;26.94;45.02;100100.94;4935505;28;46391;-72
2021/08/06 00:34:56;;;;;;;;;1.33;0.00;;;;;26.92;44.77;100093.19;4935356;28;45460;-72
2021/08/06 00:37:21;;;;;;;;;0.00;0.00;;;;;26.92;44.66;100101.19;4935942;28;45511;-72
2021/08/06 00:39:46;;;;;;;;;1.00;1.00;;;;;26.91;44.99;100096.88;4935782;28;45306;-72
2021/08/06 00:42:12;;;;;;;;;2.00;1.00;;;;;26.94;44.98;100103.59;4937183;28;45995;-72
2021/08/06 00:44:37;;;;;;;;;0.25;0.25;;;;;26.93;44.74;100100.13;4935523;28;45531;-72
2021/08/06 00:47:03;;;;;;;;;0.67;0.33;;;;;26.90;44.68;100095.28;4942191;28;45815;-72
2021/08/06 00:49:28;;;;;;;;;3.00;1.00;;;;;26.92;44.46;100105.69;4937060;28;45370;-72
2021/08/06 00:51:54;;;;;;;;;1.67;0.67;;;;;26.91;44.62;100101.41;4936848;28;47185;-73
2021/08/06 00:54:20;;;;;;;;;2.00;1.00;;;;;26.90;44.53;100092.59;4937635;28;45291;-72
2021/08/06 00:56:48;;;;;;;;;0.00;0.00;;;;;26.93;44.83;100102.00;4936837;28;45465;-72
2021/08/06 00:59:14;;;;;;;;;1.00;1.00;;;;;26.90;44.82;100087.25;4936798;28;45409;-72
2021/08/06 01:01:39;;;;;;;;;0.00;0.00;;;;;26.92;44.61;100100.38;4936862;28;45342;-72
2021/08/06 01:04:07;;;;;;;;;2.33;1.00;;;;;26.93;44.67;100100.13;4936885;28;45412;-73
2021/08/06 01:06:41;;;;;;;;;0.00;0.00;;;;;26.93;44.63;100100.13;4937175;28;45385;-72
2021/08/06 01:09:18;;;;;;;;;1.00;1.00;;;;;26.94;44.79;100099.09;4936182;28;45303;-72
2021/08/06 01:11:47;;;;;;;;;1.00;1.00;;;;;26.91;44.72;100098.72;4935932;28;45546;-72
2021/08/06 01:14:19;;;;;;;;;0.33;0.33;;;;;26.92;44.43;100101.19;4935849;28;45378;-73
2021/08/06 01:16:47;;;;;;;;;1.00;1.00;;;;;26.89;44.40;100098.97;4936540;28;45404;-72
2021/08/06 01:19:33;;;;;;;;;0.00;0.00;;;;;26.91;44.79;100099.53;4936790;28;45235;-72
2021/08/06 01:22:13;;;;;;;;;2.00;2.00;;;;;26.92;44.28;100095.84;4922452;28;46129;-72
2021/08/06 01:24:42;;;;;;;;;1.00;1.00;;;;;26.89;44.42;100090.97;4936505;28;45477;-72
2021/08/06 01:27:10;;;;;;;;;1.33;0.00;;;;;26.90;44.44;100089.13;4936953;28;45285;-73
2021/08/06 01:29:35;;;;;;;;;2.00;0.67;;;;;26.92;44.78;100097.69;4936359;28;45505;-72
2021/08/06 01:32:01;;;;;;;;;1.33;1.33;;;;;26.91;44.32;100096.06;4936301;28;46306;-72
2021/08/06 01:34:26;;;;;;;;;1.00;1.00;;;;;26.91;44.51;100096.06;4936375;28;45469;-72
2021/08/06 01:36:52;;;;;;;;;1.00;1.00;;;;;26.92;44.35;100092.34;4936573;28;45458;-72
2021/08/06 01:39:19;;;;;;;;;0.67;0.67;;;;;26.92;44.53;100100.38;4925006;28;45696;-72
2021/08/06 01:42:07;;;;;;;;;1.00;1.00;;;;;26.93;44.41;100102.00;4934410;28;46228;-72
2021/08/06 01:44:39;;;;;;;;;2.00;2.00;;;;;26.93;44.52;100107.34;4933149;28;45493;-72
2021/08/06 01:47:10;;;;;;;;;1.00;0.67;;;;;26.91;44.69;100107.56;4934811;28;45377;-72
2021/08/06 01:49:47;;;;;;;;;1.00;1.00;;;;;26.93;44.41;100102.00;4934712;28;45402;-72
2021/08/06 01:52:15;;;;;;;;;1.67;0.33;;;;;26.93;44.24;100104.66;4934645;28;46028;-72
2021/08/06 01:54:44;;;;;;;;;0.00;0.00;;;;;26.92;44.41;100109.19;4934266;28;45369;-72
2021/08/06 01:57:11;;;;;;;;;1.00;1.00;;;;;26.91;44.35;100115.56;4936940;28;45501;-72
2021/08/06 01:59:39;;;;;;;;;2.67;0.00;;;;;26.93;44.38;100110.00;4934009;28;45599;-72
2021/08/06 02:02:04;;;;;;;;;0.33;0.33;;;;;26.93;44.48;100112.69;4934414;28;47251;-72
2021/08/06 02:04:29;;;;;;;;;0.00;0.00;;;;;26.92;44.66;100114.53;4934450;28;45504;-72
2021/08/06 02:06:55;;;;;;;;;0.00;0.00;;;;;26.91;44.33;100106.72;4934896;28;45389;-72
2021/08/06 02:09:22;;;;;;;;;1.00;1.00;;;;;26.92;44.43;100114.53;4936371;28;45317;-72
2021/08/06 02:11:49;;;;;;;;;1.00;1.00;;;;;26.93;44.23;100104.66;4933882;28;47175;-72
2021/08/06 02:14:19;;;;;;;;;1.67;1.00;;;;;26.85;44.51;100095.94;4933997;28;45587;-72
2021/08/06 02:16:47;;;;;;;;;1.00;1.00;;;;;26.93;44.66;100105.47;4934650;28;45531;-72
2021/08/06 02:19:14;;;;;;;;;1.00;1.00;;;;;26.93;44.06;100102.78;4933146;28;45520;-72
2021/08/06 02:21:41;;;;;;;;;1.00;0.00;;;;;26.94;44.09;100119.63;4935942;28;46496;-72
2021/08/06 02:24:10;;;;;;;;;0.33;0.33;;;;;26.94;44.56;100111.63;4937180;28;45298;-72
2021/08/06 02:26:38;;;;;;;;;1.00;1.00;;;;;26.93;44.26;100115.34;4939151;28;45585;-72
2021/08/06 02:29:07;;;;;;;;;1.00;1.00;;;;;26.94;44.32;100123.09;4938859;28;45354;-72
2021/08/06 02:31:34;;;;;;;;;1.00;1.00;;;;;26.94;44.38;100116.94;4938781;28;47133;-72
2021/08/06 02:34:00;;;;;;;;;3.00;1.00;;;;;26.93;44.30;100118.81;4938798;28;45479;-72
2021/08/06 02:36:26;;;;;;;;;0.00;0.00;;;;;26.93;44.09;100129.47;4939286;28;45369;-72
2021/08/06 02:38:56;;;;;;;;;0.67;0.67;;;;;26.92;44.04;100122.53;4931549;28;45694;-72
2021/08/06 02:41:22;;;;;;;;;0.33;0.33;;;;;26.91;44.35;100115.56;4932734;28;47006;-72
2021/08/06 02:43:47;;;;;;;;;1.00;1.00;;;;;26.92;43.96;100119.03;4936939;28;46031;-72
2021/08/06 02:46:15;;;;;;;;;0.50;0.00;;;;;26.93;44.13;100115.34;4937594;28;45362;-72
2021/08/06 02:48:40;;;;;;;;;1.00;1.00;;;;;26.90;44.40;100113.97;4937422;28;45952;-72
2021/08/06 02:51:06;;;;;;;;;1.67;0.67;;;;;26.92;44.03;100117.19;4939336;28;47014;-72
2021/08/06 02:53:31;;;;;;;;;1.00;1.00;;;;;26.93;43.97;100123.34;4936498;28;45396;-72
2021/08/06 02:55:56;;;;;;;;;0.00;0.00;;;;;26.89;44.25;100119.50;4937300;28;45461;-72
2021/08/06 02:58:22;;;;;;;;;1.00;1.00;;;;;26.89;43.73;100127.50;4937472;28;45364;-72
2021/08/06 03:00:48;;;;;;;;;0.00;0.00;;;;;26.89;44.25;100125.66;4936425;28;45286;-72
2021/08/06 03:03:13;;;;;;;;;0.00;0.00;;;;;26.91;43.91;100128.09;4934900;28;45367;-72
2021/08/06 03:05:39;;;;;;;;;1.00;1.00;;;;;26.84;43.73;100118.34;4934801;28;45307;-72
2021/08/06 03:08:04;;;;;;;;;2.25;2.25;;;;;26.92;44.09;100127.06;4936829;28;45220;-72
2021/08/06 03:10:30;;;;;;;;;1.00;1.00;;;;;26.91;43.82;100128.09;4936864;28;47045;-72
2021/08/06 03:12:55;;;;;;;;;0.00;0.00;;;;;26.89;44.28;100133.66;4937103;28;45586;-72
2021/08/06 03:15:21;;;;;;;;;1.67;1.67;;;;;26.90;43.97;100140.66;4939337;28;45168;-72
2021/08/06 03:17:46;;;;;;;;;0.00;0.00;;;;;26.89;43.84;100128.34;4937488;28;45390;-72
2021/08/06 03:20:14;;;;;;;;;1.00;1.00;;;;;26.90;44.14;100134.50;4935619;28;45310;-72
2021/08/06 03:22:40;;;;;;;;;0.25;0.25;;;;;26.91;43.90;100134.25;4937984;28;45417;-73
2021/08/06 03:25:07;;;;;;;;;1.75;1.00;;;;;26.91;44.13;100138.75;4937036;28;45366;-72
2021/08/06 03:27:34;;;;;;;;;2.00;1.00;;;;;26.89;44.21;100139.00;4938504;28;45291;-72
2021/08/06 03:29:59;;;;;;;;;1.00;1.00;;;;;26.88;43.73;100134.69;4938551;28;45373;-72
2021/08/06 03:32:25;;;;;;;;;1.00;1.00;;;;;26.82;44.38;100123.13;4938088;28;45406;-72
2021/08/06 03:34:50;;;;;;;;;1.67;1.67;;;;;26.88;44.19;100132.03;4937881;28;45622;-73
2021/08/06 03:37:16;;;;;;;;;0.00;0.00;;;;;26.89;44.05;100136.34;4937570;28;45508;-72
2021/08/06 03:39:41;;;;;;;;;0.00;0.00;;;;;26.89;43.84;100135.53;4938010;28;46009;-72
2021/08/06 03:42:07;;;;;;;;;0.00;0.00;;;;;26.90;43.81;100143.31;4936671;28;45285;-72
2021/08/06 03:44:32;;;;;;;;;1.00;0.33;;;;;26.91;44.02;100136.09;4937884;28;45432;-72
2021/08/06 03:46:58;;;;;;;;;2.67;2.67;;;;;26.91;44.13;100144.09;4937898;28;45448;-72
2021/08/06 03:49:23;;;;;;;;;1.33;1.00;;;;;26.90;43.86;100145.16;4937812;28;47192;-72
2021/08/06 03:51:48;;;;;;;;;1.00;1.00;;;;;26.91;43.85;100150.25;4937317;28;45426;-72
2021/08/06 03:54:14;;;;;;;;;2.00;2.00;;;;;26.83;43.60;100140.72;4938542;28;45393;-73
2021/08/06 03:56:39;;;;;;;;;1.00;1.00;;;;;26.92;43.89;100151.91;4937759;28;45473;-72
2021/08/06 03:59:04;;;;;;;;;1.00;1.00;;;;;26.86;43.60;100128.78;4937684;28;46388;-72
2021/08/06 04:01:30;;;;;;;;;0.50;0.25;;;;;26.90;44.05;100140.66;4937825;28;45441;-72
2021/08/06 04:03:55;;;;;;;;;1.00;1.00;;;;;26.89;43.75;100143.53;4936564;28;45409;-72
2021/08/06 04:06:20;;;;;;;;;0.50;0.50;;;;;26.91;44.15;100139.59;4934123;28;45363;-72
2021/08/06 04:08:46;;;;;;;;;0.00;0.00;;;;;26.92;43.91;100145.75;4937498;28;49691;-72
2021/08/06 04:11:11;;;;;;;;;1.00;1.00;;;;;26.87;43.81;100143.78;4937637;28;45424;-72
2021/08/06 04:13:36;;;;;;;;;0.67;0.67;;;;;26.91;43.90;100150.25;4937635;28;45481;-72
2021/08/06 04:16:02;;;;;;;;;1.00;1.00;;;;;26.89;43.78;100147.00;4938144;28;45324;-72
2021/08/06 04:18:27;;;;;;;;;1.00;1.00;;;;;26.90;43.90;100145.97;4937777;28;45592;-72
2021/08/06 04:20:53;;;;;;;;;1.00;0.00;;;;;26.87;44.21;100146.44;4937629;28;45239;-73
2021/08/06 04:23:19;;;;;;;;;0.00;0.00;;;;;26.87;43.93;100137.63;4937636;28;45256;-72
2021/08/06 04:25:44;;;;;;;;;3.00;2.00;;;;;26.89;43.75;100147.00;4948110;28;45415;-72
2021/08/06 04:28:10;;;;;;;;;1.00;1.00;;;;;26.88;43.69;100142.69;4937525;28;45475;-72
2021/08/06 04:30:35;;;;;;;;;0.33;0.33;;;;;26.88;44.08;100144.59;4937448;28;45523;-73
2021/08/06 04:33:00;;;;;;;;;0.00;0.00;;;;;26.89;43.72;100156.88;4938060;28;45429;-72
2021/08/06 04:35:26;;;;;;;;;0.00;0.00;;;;;26.89;43.80;100156.88;4936879;28;45823;-72
2021/08/06 04:37:53;;;;;;;;;2.00;0.33;;;;;26.88;43.48;100156.06;4937023;28;46194;-72
2021/08/06 04:40:19;;;;;;;;;0.00;0.00;;;;;26.86;43.55;100152.81;4937223;28;45504;-72
2021/08/06 04:42:45;;;;;;;;;2.00;0.00;;;;;26.89;43.70;100154.19;4937209;28;45480;-73
2021/08/06 04:45:11;;;;;;;;;0.00;0.00;;;;;26.88;43.99;100157.94;4937834;28;45371;-72
2021/08/06 04:47:48;;;;;;;;;0.33;0.33;;;;;26.85;43.87;100153.88;4935628;28;46988;-72
2021/08/06 04:50:16;;;;;;;;;3.00;0.67;;;;;26.88;43.73;100158.72;4936532;28;45422;-72
2021/08/06 04:52:42;;;;;;;;;0.00;0.00;;;;;26.88;43.91;100160.59;4937033;28;45488;-73
2021/08/06 04:55:09;;;;;;;;;1.00;1.00;;;;;26.88;43.57;100160.59;4937288;28;47696;-72
2021/08/06 04:57:36;;;;;;;;;0.33;0.33;;;;;26.88;43.54;100158.72;4937019;28;45270;-73
2021/08/06 05:00:01;;;;;;;;;0.25;0.25;;;;;26.87;43.58;100162.44;4935517;28;45343;-72
2021/08/06 05:02:27;;;;;;;;;0.67;0.67;;;;;26.88;43.50;100168.59;4937031;28;45414;-72
2021/08/06 05:04:52;;;;;;;;;0.00;0.00;;;;;26.88;43.92;100168.59;4936442;28;45276;-72
2021/08/06 05:07:18;;;;;;;;;2.00;0.00;;;;;26.88;43.76;100168.59;4936784;28;46101;-72
2021/08/06 05:09:47;;;;;;;;;0.00;0.00;;;;;26.88;43.47;100172.06;4936809;28;45315;-72
2021/08/06 05:12:13;;;;;;;;;0.33;0.33;;;;;26.82;43.62;100159.66;4937572;28;45353;-72
2021/08/06 05:14:39;;;;;;;;;3.00;1.00;;;;;26.82;43.64;100157.81;4936541;28;45330;-72
2021/08/06 05:17:05;;;;;;;;;0.67;0.67;;;;;26.89;43.56;100170.22;4936399;28;47388;-72
2021/08/06 05:19:30;;;;;;;;;0.00;0.00;;;;;26.86;43.52;100166.16;4936455;28;45484;-72
2021/08/06 05:21:55;;;;;;;;;1.33;1.00;;;;;26.86;43.19;100158.13;4936899;28;45508;-72
2021/08/06 05:24:21;;;;;;;;;1.00;0.00;;;;;26.88;43.27;100160.59;4937446;28;45444;-72
2021/08/06 05:26:46;;;;;;;;;1.00;1.00;;;;;26.89;43.42;100173.69;4936597;28;47162;-72
2021/08/06 05:29:11;;;;;;;;;0.00;0.00;;;;;26.89;43.62;100171.03;4936408;28;45430;-73
2021/08/06 05:31:37;;;;;;;;;1.00;1.00;;;;;26.87;43.45;100181.13;4936544;28;45294;-73
2021/08/06 05:34:02;;;;;;;;;0.00;0.00;;;;;26.88;43.42;100188.06;4936349;28;45622;-72
2021/08/06 05:36:27;;;;;;;;;1.00;1.00;;;;;26.85;43.62;100192.03;4936907;28;46937;-72
2021/08/06 05:38:53;;;;;;;;;1.00;1.00;;;;;26.89;43.46;100191.56;4936883;28;45332;-72
2021/08/06 05:41:18;;;;;;;;;1.00;0.00;;;;;26.88;43.48;100185.41;4936597;28;45723;-73
2021/08/06 05:43:44;;;;;;;;;0.00;0.00;;;;;26.89;43.61;100180.88;4936331;28;45544;-72
2021/08/06 05:46:09;;;;;;;;;0.00;0.00;;;;;26.83;43.73;100179.94;4936390;28;45996;-72
2021/08/06 05:48:35;;;;;;;;;0.00;0.00;;;;;26.87;43.27;100182.97;4936095;28;45538;-73
2021/08/06 05:51:00;;;;;;;;;0.00;0.00;;;;;26.83;43.28;100175.44;4936869;28;45289;-72
2021/08/06 05:53:26;;;;;;;;;0.00;0.00;;;;;26.87;43.66;100183.81;4936097;28;45425;-72
2021/08/06 05:55:51;;;;;;;;;0.33;0.00;;;;;26.85;43.53;100178.66;4935999;28;46421;-72
2021/08/06 05:58:16;;;;;;;;;2.00;1.00;;;;;26.87;43.40;100188.31;4936239;28;45321;-73
2021/08/06 06:00:42;;;;;;;;;1.67;0.00;;;;;26.87;43.30;100188.31;4939581;28;45548;-72
2021/08/06 06:03:07;;;;;;;;;1.00;1.00;;;;;26.84;43.44;100187.75;4938811;28;45548;-72
2021/08/06 06:05:32;;;;;;;;;0.67;0.00;;;;;26.85;43.53;100186.69;4939299;28;45460;-72
2021/08/06 06:07:58;;;;;;;;;2.00;0.67;;;;;26.85;43.73;100197.34;4939467;28;45399;-74
2021/08/06 06:10:23;;;;;;;;;1.33;1.00;;;;;26.85;43.23;100197.34;4939505;28;45543;-73
2021/08/06 06:12:50;;;;;;;;;1.00;1.00;;;;;26.85;43.49;100194.69;4939807;28;45627;-75
2021/08/06 06:15:16;;;;;;;;;1.00;0.00;;;;;26.84;43.47;100186.91;4939314;28;45495;-74
2021/08/06 06:17:42;;;;;;;;;0.00;0.00;;;;;26.76;42.96;100190.72;4938712;28;45370;-75
2021/08/06 06:20:08;;;;;;;;;1.33;1.00;;;;;26.74;43.02;100184.81;4939327;28;45485;-73
2021/08/06 06:22:33;;;;;;;;;1.00;1.00;;;;;26.69;42.71;100180.16;4939354;28;45602;-74
2021/08/06 06:25:00;;;;;;;;;1.00;1.00;;;;;26.68;42.76;100193.72;4939025;28;45478;-74
2021/08/06 06:27:25;;;;;;;;;1.67;1.67;;;;;26.67;42.67;100190.25;4939648;28;45410;-75
2021/08/06 06:29:51;;;;;;;;;2.00;2.00;;;;;26.64;42.96;100180.03;4939480;28;45487;-74
2021/08/06 06:32:16;;;;;;;;;1.00;1.00;;;;;26.68;42.69;100193.72;4938678;28;45410;-74
2021/08/06 06:34:42;;;;;;;;;1.00;1.00;;;;;26.67;42.66;100192.94;4938550;28;46981;-75
2021/08/06 06:37:07;;;;;;;;;1.50;1.00;;;;;26.70;43.10;100197.00;4939013;28;45497;-74
2021/08/06 06:39:33;;;;;;;;;2.25;1.00;;;;;26.66;42.69;100198.47;4939240;28;45401;-75
2021/08/06 06:41:58;;;;;;;;;1.50;1.50;;;;;26.65;42.70;100197.66;4938119;28;47499;-75
2021/08/06 06:44:24;;;;;;;;;1.25;1.00;;;;;26.70;42.73;100199.66;4936037;28;46588;-72
2021/08/06 06:46:49;;;;;;;;;1.00;1.00;;;;;26.72;43.01;100200.25;4937391;28;45391;-72
2021/08/06 06:49:14;;;;;;;;;1.00;1.00;;;;;26.74;42.65;100206.16;4935857;28;45660;-72
2021/08/06 06:51:40;;;;;;;;;0.50;0.50;;;;;26.74;42.70;100211.50;4938445;28;45385;-72
2021/08/06 06:54:05;;;;;;;;;1.00;0.33;;;;;26.74;42.85;100206.97;4939258;28;45909;-72
2021/08/06 06:56:30;;;;;;;;;1.00;1.00;;;;;26.75;42.94;100202.47;4938384;28;45508;-71
2021/08/06 06:58:56;;;;;;;;;0.67;0.00;;;;;26.76;42.57;100212.09;4938582;28;45633;-72
2021/08/06 07:01:21;;;;;;;;;3.00;1.67;;;;;26.75;42.83;100202.47;4938375;28;45421;-72
2021/08/06 07:03:46;;;;;;;;;1.00;0.75;;;;;26.77;42.77;100218.25;4938325;28;47321;-71
2021/08/06 07:06:12;;;;;;;;;2.00;2.00;;;;;26.76;42.83;100225.41;4939158;28;45393;-72
2021/08/06 07:08:39;;;;;;;;;0.00;0.00;;;;;26.70;42.68;100208.47;4938442;28;45366;-72
2021/08/06 07:11:05;;;;;;;;;3.00;1.25;;;;;26.77;42.84;100220.91;4937130;28;45299;-72
2021/08/06 07:13:31;;;;;;;;;0.00;0.00;;;;;26.79;42.63;100229.50;4938061;28;46319;-72
2021/08/06 07:15:57;;;;;;;;;1.00;1.00;;;;;26.76;42.46;100225.41;4938094;28;45434;-72
2021/08/06 07:18:22;;;;;;;;;0.00;0.00;;;;;26.78;42.71;100233.22;4938849;28;45472;-72
2021/08/06 07:20:47;;;;;;;;;0.75;0.75;;;;;26.76;42.99;100230.75;4938967;28;45301;-72
2021/08/06 07:23:13;;;;;;;;;0.00;0.00;;;;;26.71;42.52;100227.97;4938028;28;46071;-72
2021/08/06 07:25:38;;;;;;;;;1.00;1.00;;;;;26.76;42.84;100227.28;4938263;28;45397;-72
2021/08/06 07:28:04;;;;;;;;;0.00;0.00;;;;;26.77;42.75;100235.06;4938572;28;45539;-72
2021/08/06 07:30:29;;;;;;;;;1.00;1.00;;;;;26.80;42.41;100233.81;4938364;28;45314;-72
2021/08/06 07:32:55;;;;;;;;;0.00;0.00;;;;;26.77;42.69;100235.06;4938507;28;46248;-72
2021/08/06 07:35:21;;;;;;;;;2.25;2.00;;;;;26.79;42.40;100238.31;4937773;28;45384;-72
2021/08/06 07:37:47;;;;;;;;;2.33;1.00;;;;;26.80;42.29;100245.28;4938208;28;45380;-73
2021/08/06 07:40:14;;;;;;;;;2.75;0.75;;;;;26.82;42.59;100245.88;4938002;28;45375;-72
2021/08/06 07:42:40;;;;;;;;;3.75;1.00;;;;;26.79;42.80;100246.31;4937460;28;46321;-72
2021/08/06 07:45:06;;;;;;;;;0.33;0.33;;;;;26.81;42.66;100252.25;4938473;28;45502;-72
2021/08/06 07:47:32;;;;;;;;;1.33;1.00;;;;;26.84;42.48;100261.66;4937943;28;45450;-72
2021/08/06 07:49:58;;;;;;;;;1.67;1.00;;;;;26.80;42.31;100261.31;4937655;28;45489;-72
2021/08/06 07:52:23;;;;;;;;;0.67;0.00;;;;;26.83;42.52;100263.50;4937828;28;45907;-72
2021/08/06 07:54:48;;;;;;;;;1.00;1.00;;;;;26.80;42.23;100253.31;4937645;28;45416;-72
2021/08/06 07:57:14;;;;;;;;;1.67;0.00;;;;;26.82;42.27;100264.56;4938252;28;45434;-72
2021/08/06 07:59:40;;;;;;;;;3.00;1.00;;;;;26.80;42.45;100263.97;4937731;28;45371;-72
2021/08/06 08:02:06;;;;;;;;;0.67;0.00;;;;;26.82;42.15;100258.41;4937369;28;46147;-72
2021/08/06 08:04:32;;;;;;;;;0.00;0.00;;;;;26.81;42.42;100267.44;4937622;28;45382;-72
2021/08/06 08:06:57;;;;;;;;;1.00;1.00;;;;;26.81;42.23;100281.59;4934921;28;45622;-73
2021/08/06 08:09:23;;;;;;;;;0.00;0.00;;;;;26.83;42.37;100279.50;4896139;28;45341;-73
2021/08/06 08:11:48;;;;;;;;;0.00;0.00;;;;;26.84;42.50;100277.66;4917250;28;45365;-72
2021/08/06 08:14:14;;;;;;;;;1.67;1.67;;;;;26.82;42.35;100277.91;4918252;28;45536;-73
2021/08/06 08:16:40;;;;;;;;;1.00;1.00;;;;;26.83;42.71;100289.38;4917828;28;45308;-72
2021/08/06 08:19:05;;;;;;;;;0.00;0.00;;;;;26.84;42.28;100288.34;4917931;28;45368;-73
2021/08/06 08:21:31;;;;;;;;;0.00;0.00;;;;;26.83;42.52;100287.50;4917728;28;45541;-74
2021/08/06 08:23:56;;;;;;;;;1.00;1.00;;;;;26.83;42.77;100281.34;4918094;28;45443;-73
2021/08/06 08:26:21;;;;;;;;;1.00;1.00;;;;;26.76;42.78;100273.47;4917628;28;45249;-72
2021/08/06 08:28:47;;;;;;;;;0.00;0.00;;;;;26.82;42.42;100288.56;4918023;28;45534;-72
2021/08/06 08:31:13;;;;;;;;;2.50;0.00;;;;;26.81;42.43;100286.13;4917866;28;45712;-73
2021/08/06 08:33:38;;;;;;;;;1.00;1.00;;;;;26.84;42.86;100291.81;4917755;28;45382;-73
2021/08/06 08:36:04;;;;;;;;;0.67;0.00;;;;;26.82;42.85;100291.25;4918243;28;45475;-73
2021/08/06 08:38:30;;;;;;;;;0.00;0.00;;;;;26.84;42.99;100291.81;4917719;28;45510;-73
2021/08/06 08:40:57;;;;;;;;;1.00;1.00;;;;;26.87;42.85;100298.56;4917281;28;46348;-72
2021/08/06 08:43:24;;;;;;;;;1.00;0.00;;;;;26.85;42.79;100296.09;4917677;28;45404;-73
2021/08/06 08:45:50;;;;;;;;;3.33;2.00;;;;;26.88;42.88;100305.50;4917600;28;45338;-74
2021/08/06 08:48:17;;;;;;;;;0.33;0.00;;;;;26.90;42.58;100306.13;4918075;28;45376;-72
2021/08/06 08:50:43;;;;;;;;;1.00;1.00;;;;;26.89;42.54;100309.00;4917469;28;45704;-73
2021/08/06 08:53:09;;;;;;;;;0.00;0.00;;;;;26.91;42.83;100304.25;4917284;28;45476;-73
2021/08/06 08:55:37;;;;;;;;;0.00;0.00;;;;;26.88;42.82;100300.16;4917470;28;45483;-73
2021/08/06 08:58:04;;;;;;;;;0.00;0.00;;;;;26.91;42.94;100296.25;4916778;28;47920;-73
2021/08/06 09:00:30;;;;;;;;;1.00;0.00;;;;;26.90;42.71;100294.63;4917333;28;46026;-73
2021/08/06 09:02:55;;;;;;;;;0.00;0.00;;;;;26.93;42.34;100299.53;4917835;28;45470;-72
2021/08/06 09:05:26;;;;;;;;;0.00;0.00;;;;;26.93;43.04;100297.63;4917532;28;45856;-73
2021/08/06 09:07:52;;;;;;;;;2.00;1.00;;;;;26.94;42.80;100293.13;4917293;28;45375;-73
2021/08/06 09:10:27;;;;;;;;;1.00;1.00;;;;;26.95;42.73;100305.44;4916855;28;47228;-74
2021/08/06 09:12:52;;;;;;;;;0.00;0.00;;;;;26.95;42.74;100300.91;4902449;28;45521;-72
2021/08/06 09:15:39;;;;;;;;;2.00;0.00;;;;;26.96;42.85;100307.03;4917957;28;45335;-72
2021/08/06 09:18:26;;;;;;;;;1.00;0.33;;;;;26.94;42.71;100311.81;4915649;28;45499;-72
2021/08/06 09:20:53;;;;;;;;;0.33;0.00;;;;;26.95;42.80;100308.94;4916925;28;45398;-72
2021/08/06 09:23:51;;;;;;;;;0.00;0.00;;;;;26.96;42.71;100323.88;4931846;28;46440;-73
2021/08/06 09:26:26;;;;;;;;;0.00;0.00;;;;;26.96;42.65;100341.75;4916837;28;45521;-73
2021/08/06 09:28:57;;;;;;;;;0.00;0.00;;;;;26.95;42.59;100354.31;4917153;28;45546;-73
2021/08/06 09:31:22;;;;;;;;;0.33;0.00;;;;;26.88;42.92;100339.41;4916174;28;46466;-74
2021/08/06 09:33:48;;;;;;;;;0.00;0.00;;;;;26.93;43.09;100352.91;4917673;28;45483;-74
2021/08/06 09:36:17;;;;;;;;;1.33;1.00;;;;;26.95;42.97;100334.81;4921522;28;45498;-74
2021/08/06 09:38:43;;;;;;;;;0.00;0.00;;;;;26.94;43.08;100338.50;4920611;28;46416;-74
2021/08/06 09:41:29;;;;;;;;;1.33;0.00;;;;;26.94;43.04;100335.81;4920516;28;46515;-73
2021/08/06 09:44:25;;;;;;;;;0.33;0.33;;;;;26.94;42.85;100342.00;4920486;28;45396;-73
2021/08/06 09:46:51;;;;;;;;;2.00;0.33;;;;;26.94;43.05;100335.81;4920340;28;45540;-74
2021/08/06 09:49:19;;;;;;;;;1.00;1.00;;;;;26.89;43.18;100333.03;4913755;28;45525;-72
2021/08/06 09:51:48;;;;;;;;;0.00;0.00;;;;;26.95;42.93;100338.28;4915920;28;45564;-73
2021/08/06 09:54:18;;;;;;;;;2.00;0.00;;;;;26.96;42.64;100349.75;4919394;28;45444;-72
2021/08/06 09:56:44;;;;;;;;;2.67;0.67;;;;;26.94;42.83;100350.00;4918961;28;45471;-71
2021/08/06 09:59:10;;;;;;;;;0.00;0.00;;;;;26.98;42.99;100354.88;4918363;28;45513;-72
2021/08/06 10:01:36;;;;;;;;;2.00;1.00;;;;;26.99;42.92;100353.81;4915235;28;46192;-72
2021/08/06 10:04:13;;;;;;;;;1.00;1.00;;;;;27.00;43.00;100360.81;4917170;28;45485;-74
2021/08/06 10:06:39;;;;;;;;;1.00;0.00;;;;;27.01;42.99;100359.78;4917386;28;45240;-75
2021/08/06 10:09:05;;;;;;;;;11.25;8.25;;;;;26.96;42.81;100357.75;4919270;28;45478;-74
2021/08/06 10:11:30;;;;;;;;;7.25;6.25;;;;;26.90;42.96;100359.50;4916382;28;46218;-74
2021/08/06 10:13:55;;;;;;;;;5.50;4.00;;;;;26.90;42.83;100366.69;4918288;28;45819;-74
2021/08/06 10:16:20;;;;;;;;;3.25;3.25;;;;;26.82;43.39;100349.97;4918690;28;45553;-74
2021/08/06 10:18:46;;;;;;;;;3.75;3.00;;;;;26.74;43.21;100353.75;4918467;28;45419;-74
2021/08/06 10:21:12;;;;;;;;;1.75;1.75;;;;;26.71;43.42;100356.03;4919332;28;45424;-74
2021/08/06 10:23:37;;;;;;;;;4.25;1.75;;;;;26.66;43.76;100353.22;4917637;28;45367;-75
2021/08/06 10:26:06;;;;;;;;;3.75;2.25;;;;;26.60;43.80;100346.94;4917266;28;45456;-75
2021/08/06 10:28:32;;;;;;;;;3.00;3.00;;;;;26.56;44.31;100349.25;4916636;28;45524;-76
2021/08/06 10:31:22;;;;;;;;;4.25;4.00;;;;;26.52;44.23;100351.53;4917553;28;46052;-74
2021/08/06 10:34:07;;;;;;;;;6.00;5.50;;;;;26.49;44.72;100354.63;4908444;28;45339;-75
2021/08/06 10:36:48;;;;;;;;;5.25;5.25;;;;;26.46;44.55;100351.63;4917655;28;45386;-76
2021/08/06 10:39:26;;;;;;;;;5.75;4.50;;;;;26.46;44.77;100352.44;4918203;28;45654;-75
2021/08/06 10:41:52;;;;;;;;;6.25;5.75;;;;;26.46;45.03;100354.28;4916709;28;45561;-75
2021/08/06 10:44:18;;;;;;;;;5.75;3.50;;;;;26.46;44.95;100349.78;4916613;28;45441;-73
2021/08/06 10:46:49;;;;;;;;;2.75;1.50;;;;;26.50;45.07;100342.94;4917246;28;45593;-74
2021/08/06 10:49:14;;;;;;;;;3.25;3.00;;;;;26.51;44.85;100338.44;4917618;28;45590;-74
2021/08/06 10:51:40;;;;;;;;;3.00;3.00;;;;;26.52;44.73;100343.53;4918122;28;47064;-74
2021/08/06 10:54:05;;;;;;;;;3.25;2.00;;;;;26.53;44.56;100341.69;4920279;28;45339;-75
2021/08/06 10:56:33;;;;;;;;;5.00;1.67;;;;;26.52;44.29;100350.72;4918533;28;45342;-75
2021/08/06 10:59:14;;;;;;;;;5.25;3.00;;;;;26.58;44.78;100349.00;4918405;28;45455;-72
2021/08/06 11:01:45;;;;;;;;;3.00;2.00;;;;;26.51;44.79;100349.09;4914994;28;47274;-74
2021/08/06 11:04:13;;;;;;;;;4.33;2.00;;;;;26.62;44.80;100360.88;4917015;28;45429;-74
2021/08/06 11:06:48;;;;;;;;;1.33;1.33;;;;;26.62;44.83;100356.34;4916617;28;45394;-67
2021/08/06 11:09:26;;;;;;;;;2.00;2.00;;;;;26.63;44.52;100362.50;4918485;28;45446;-67
2021/08/06 11:11:51;;;;;;;;;1.33;1.33;;;;;26.61;44.51;100356.56;4917268;28;46099;-68
2021/08/06 11:27:35;;;;;;;;;2.00;2.00;;;;;26.65;44.77;100367.63;5087649;27;45739;-70
2021/08/06 11:30:12;;;;;;;;;1.00;1.00;;;;;26.61;44.75;100356.56;5069816;27;46421;-70
2021/08/06 11:32:59;;;;;;;;;1.00;1.00;;;;;26.68;44.64;100364.47;5070321;28;45396;-70
2021/08/06 11:35:33;;;;;;;;;1.00;1.00;;;;;26.71;44.78;100361.38;5069514;27;45492;-71
2021/08/06 11:38:13;;;;;;;;;1.67;1.00;;;;;26.73;44.60;100356.63;5069877;27;45714;-70